Time;durP1;ratioP1;P1;durP2;ratioP2;P2;SDS_P1;SDS_P2;PMS_P1;PMS_P2;Temp;Humidity;BMP_temperature;BMP_pressure;BME280_temperature;BME280_humidity;BME280_pressure;Samples;Min_cycle;Max_cycle;Signal;HPM_P1;HPM_P2
2022/04/30 00:00:35;;;;;;;8.02;4.50;;;;;;;12.46;47.10;102765.69;6338137;22;20014;-64
2022/04/30 00:03:02;;;;;;;7.78;4.68;;;;;;;12.45;47.02;102764.81;6337270;22;20019;-65
2022/04/30 00:05:32;;;;;;;5.57;4.95;;;;;;;12.45;47.04;102763.94;6337772;22;20081;-64
2022/04/30 00:07:59;;;;;;;9.02;4.60;;;;;;;12.41;47.13;102768.63;6338309;22;20017;-65
2022/04/30 00:10:30;;;;;;;7.15;4.45;;;;;;;12.38;47.25;102758.00;6338392;22;20011;-65
2022/04/30 00:12:57;;;;;;;7.78;4.80;;;;;;;12.36;47.11;102757.19;6311041;22;20018;-65
2022/04/30 00:15:24;;;;;;;5.70;4.60;;;;;;;12.34;47.29;102759.97;6338507;22;20015;-64
2022/04/30 00:17:51;;;;;;;10.73;4.80;;;;;;;12.31;47.34;102760.09;6337092;22;20041;-65
2022/04/30 00:20:24;;;;;;;6.13;4.22;;;;;;;12.32;47.51;102766.38;6337860;22;20098;-66
2022/04/30 00:22:52;;;;;;;10.05;4.63;;;;;;;12.33;47.45;102762.72;6338279;22;20089;-64
2022/04/30 00:25:21;;;;;;;8.65;4.70;;;;;;;12.32;47.43;102758.28;6338354;22;20023;-64
2022/04/30 00:27:48;;;;;;;8.02;4.28;;;;;;;12.30;47.71;102758.34;6338266;22;20015;-64
2022/04/30 00:30:18;;;;;;;9.20;5.03;;;;;;;12.30;47.55;102757.47;6309579;22;20022;-65
2022/04/30 00:32:44;;;;;;;9.02;5.03;;;;;;;12.27;47.65;102760.31;6310940;22;20011;-64
2022/04/30 00:35:11;;;;;;;7.53;4.60;;;;;;;12.23;47.49;102750.63;6338222;22;20086;-65
2022/04/30 00:37:38;;;;;;;6.70;4.90;;;;;;;12.21;47.71;102755.22;6338259;22;20457;-65
2022/04/30 00:40:06;;;;;;;6.90;4.70;;;;;;;12.18;47.74;102758.06;6338002;22;20022;-64
2022/04/30 00:42:33;;;;;;;8.50;4.95;;;;;;;12.13;47.84;102755.59;6309559;22;20025;-64
2022/04/30 00:44:59;;;;;;;6.40;4.68;;;;;;;12.11;47.84;102759.31;6310443;22;20041;-66
2022/04/30 00:47:26;;;;;;;9.45;4.75;;;;;;;12.08;47.80;102754.94;6338094;22;20019;-65
2022/04/30 00:49:53;;;;;;;9.65;4.72;;;;;;;12.05;47.95;102750.56;6309957;22;20019;-65
2022/04/30 00:52:25;;;;;;;9.18;4.57;;;;;;;12.04;48.18;102745.25;6310463;22;20318;-65
2022/04/30 00:55:06;;;;;;;6.03;4.40;;;;;;;12.01;47.99;102738.19;6309388;22;20337;-65
2022/04/30 00:57:36;;;;;;;7.55;4.43;;;;;;;12.01;48.02;102738.19;6338441;22;20015;-65
2022/04/30 01:00:04;;;;;;;6.70;4.18;;;;;;;12.00;48.10;102736.44;6337547;22;20420;-65
2022/04/30 01:02:52;;;;;;;7.50;4.68;;;;;;;12.00;47.97;102730.19;6336775;22;20373;-65
2022/04/30 01:05:39;;;;;;;6.68;4.97;;;;;;;11.96;48.14;102731.28;6321096;22;20091;-64
2022/04/30 01:08:07;;;;;;;10.35;5.30;;;;;;;11.92;48.27;102735.94;6337597;22;20341;-64
2022/04/30 01:10:41;;;;;;;9.45;4.50;;;;;;;11.89;48.29;102733.38;6336616;22;20049;-65
2022/04/30 01:13:10;;;;;;;6.85;4.47;;;;;;;11.86;48.24;102722.72;6310623;22;20086;-65
2022/04/30 01:15:39;;;;;;;7.57;4.47;;;;;;;11.83;48.26;102730.94;6337719;22;20406;-66
2022/04/30 01:18:08;;;;;;;7.25;5.20;;;;;;;11.81;48.40;102731.97;6337898;22;20038;-65
2022/04/30 01:20:51;;;;;;;6.28;4.18;;;;;;;11.78;48.47;102727.59;6336973;22;20019;-65
2022/04/30 01:23:19;;;;;;;6.65;4.38;;;;;;;11.76;48.28;102726.75;6310727;22;20019;-65
2022/04/30 01:25:47;;;;;;;7.85;4.70;;;;;;;11.74;48.57;102724.13;6337656;22;20291;-65
2022/04/30 01:28:16;;;;;;;10.55;4.80;;;;;;;11.70;48.53;102724.34;6310451;22;20015;-66
2022/04/30 01:30:48;;;;;;;7.30;4.72;;;;;;;11.66;48.59;102731.69;6336572;22;20093;-65
2022/04/30 01:38:47;;;;;;;12.60;5.18;;;;;;;11.56;48.85;102729.47;6337321;22;20011;-66
2022/04/30 01:41:21;;;;;;;8.63;4.55;;;;;;;11.53;48.86;102721.56;6337688;22;20019;-65
2022/04/30 01:43:49;;;;;;;6.07;4.28;;;;;;;11.50;48.79;102721.69;6336280;22;20021;-64
2022/04/30 01:46:19;;;;;;;7.93;4.65;;;;;;;11.49;48.83;102720.81;6310240;22;20015;-65
2022/04/30 01:48:47;;;;;;;8.18;4.50;;;;;;;11.50;48.96;102719.00;6309803;22;20026;-65
2022/04/30 01:51:19;;;;;;;9.52;5.30;;;;;;;11.50;49.05;102719.00;6337524;22;20015;-65
2022/04/30 01:53:45;;;;;;;10.13;4.68;;;;;;;11.50;49.09;102714.50;6338188;22;20011;-66
2022/04/30 01:56:14;;;;;;;6.53;4.47;;;;;;;11.50;48.83;102716.31;6336456;22;20021;-65
2022/04/30 01:58:56;;;;;;;7.85;4.65;;;;;;;11.48;48.99;102715.50;6309731;22;20098;-64
2022/04/30 02:01:29;;;;;;;7.85;4.95;;;;;;;11.46;49.21;102719.13;6309613;22;20065;-65
2022/04/30 02:03:56;;;;;;;7.45;4.63;;;;;;;11.43;49.00;102713.03;6337259;22;20489;-64
2022/04/30 02:06:24;;;;;;;9.70;5.45;;;;;;;11.42;49.15;102711.28;6337395;22;20021;-64
2022/04/30 02:08:51;;;;;;;5.38;4.10;;;;;;;11.39;49.11;102706.03;6335879;22;20015;-65
2022/04/30 02:11:23;;;;;;;9.77;4.60;;;;;;;11.38;49.22;102710.53;6337622;22;20360;-64
2022/04/30 02:13:53;;;;;;;7.20;4.97;;;;;;;11.37;49.25;102705.22;6336848;22;20054;-64
2022/04/30 02:16:23;;;;;;;10.63;5.07;;;;;;;11.34;49.27;102711.63;6337587;22;20408;-65
2022/04/30 02:18:51;;;;;;;10.85;4.88;;;;;;;11.30;49.17;102701.94;6337109;22;20504;-65
2022/04/30 02:21:26;;;;;;;9.45;4.65;;;;;;;11.27;49.33;102709.28;6335724;22;20057;-65
2022/04/30 02:23:57;;;;;;;9.57;5.13;;;;;;;11.22;49.25;102701.41;6337027;22;20017;-65
2022/04/30 02:26:27;;;;;;;5.95;4.88;;;;;;;11.17;49.36;102700.72;6337601;22;20017;-66
2022/04/30 02:28:57;;;;;;;7.88;4.85;;;;;;;11.12;49.50;102705.41;6309857;22;20105;-65
2022/04/30 02:31:28;;;;;;;8.65;5.15;;;;;;;11.09;49.46;102705.53;6336447;22;20011;-65
2022/04/30 02:33:56;;;;;;;8.70;5.20;;;;;;;11.08;49.46;102706.47;6337123;22;20038;-65
2022/04/30 02:36:27;;;;;;;7.90;5.40;;;;;;;11.05;49.51;102701.25;6337486;22;20010;-65
2022/04/30 02:38:56;;;;;;;9.15;4.97;;;;;;;11.00;49.55;102697.88;6309186;22;20419;-65
2022/04/30 02:41:25;;;;;;;8.05;4.82;;;;;;;10.98;49.42;102697.94;6336259;22;20022;-64
2022/04/30 02:43:54;;;;;;;7.25;4.88;;;;;;;10.94;49.63;102690.09;6337103;22;20014;-64
2022/04/30 02:46:21;;;;;;;11.75;5.22;;;;;;;10.90;49.76;102694.72;6337232;22;20015;-64
2022/04/30 02:48:48;;;;;;;8.05;4.80;;;;;;;10.89;49.60;102697.47;6336964;22;20010;-64
2022/04/30 02:51:17;;;;;;;11.63;4.97;;;;;;;10.87;49.68;102686.78;6335062;22;20023;-63
2022/04/30 02:53:44;;;;;;;7.55;4.70;;;;;;;10.87;49.69;102699.34;6336576;22;20014;-64
2022/04/30 02:56:12;;;;;;;8.18;5.18;;;;;;;10.82;49.60;102689.66;6336837;22;20476;-64
2022/04/30 03:01:29;;;;;;;7.07;4.43;;;;;;;10.74;49.51;102681.06;6336464;22;20046;-64
2022/04/30 03:04:07;;;;;;;8.52;4.85;;;;;;;10.72;49.38;102685.63;6309082;22;20022;-64
2022/04/30 03:06:35;;;;;;;8.68;4.90;;;;;;;10.68;49.54;102678.63;6336392;22;20014;-64
2022/04/30 03:09:09;;;;;;;7.57;5.13;;;;;;;10.65;49.59;102684.13;6336489;22;20042;-64
2022/04/30 03:11:36;;;;;;;6.88;4.80;;;;;;;10.63;49.49;102682.44;6336071;22;20006;-65
2022/04/30 03:14:02;;;;;;;7.63;5.50;;;;;;;10.59;49.56;102676.34;6336497;22;20294;-63
2022/04/30 03:22:05;;;;;;;9.05;5.65;;;;;;;10.50;49.47;102671.34;6336743;22;20019;-64
2022/04/30 03:24:32;;;;;;;7.60;5.22;;;;;;;10.48;49.58;102675.91;6336694;22;20019;-65
2022/04/30 03:26:59;;;;;;;8.85;5.10;;;;;;;10.46;49.65;102680.47;6336871;22;20015;-64
2022/04/30 03:29:25;;;;;;;8.60;5.25;;;;;;;10.45;49.63;102670.66;6335292;22;20011;-66
2022/04/30 03:31:56;;;;;;;8.52;5.40;;;;;;;10.42;49.98;102671.66;6336712;22;20019;-64
2022/04/30 03:34:22;;;;;;;10.63;5.55;;;;;;;10.42;49.76;102670.78;6335918;22;20528;-65
2022/04/30 03:36:49;;;;;;;8.68;5.53;;;;;;;10.40;49.71;102667.25;6336056;22;20015;-65
2022/04/30 03:39:16;;;;;;;8.70;5.40;;;;;;;10.37;49.80;102670.06;6336849;22;20021;-64
2022/04/30 03:41:44;;;;;;;9.55;5.88;;;;;;;10.34;49.78;102670.19;6335750;22;20337;-64
2022/04/30 03:44:11;;;;;;;9.00;6.05;;;;;;;10.31;49.83;102670.31;6336710;22;20014;-64
2022/04/30 03:46:37;;;;;;;7.57;5.70;;;;;;;10.28;49.89;102668.63;6336565;22;20014;-64
2022/04/30 03:49:04;;;;;;;8.40;5.38;;;;;;;10.25;49.71;102667.91;6308821;22;20060;-64
2022/04/30 03:51:38;;;;;;;8.57;5.35;;;;;;;10.23;50.05;102667.97;6307671;22;20072;-63
2022/04/30 03:54:05;;;;;;;7.78;5.13;;;;;;;10.23;49.76;102667.09;6335936;22;20521;-65
2022/04/30 03:56:32;;;;;;;9.43;6.18;;;;;;;10.19;49.81;102668.97;6283201;22;20018;-65
2022/04/30 03:58:59;;;;;;;7.82;5.85;;;;;;;10.16;50.05;102667.31;6309028;22;20015;-64
2022/04/30 04:01:30;;;;;;;12.85;6.38;;;;;;;10.15;50.12;102665.56;6308971;22;20033;-65
2022/04/30 04:04:00;;;;;;;9.10;5.47;;;;;;;10.14;50.11;102662.94;6336689;22;20333;-64
2022/04/30 04:06:29;;;;;;;12.98;7.25;;;;;;;10.13;50.14;102671.91;6307610;22;20098;-64
2022/04/30 04:08:57;;;;;;;7.25;5.57;;;;;;;10.11;50.30;102666.59;6308796;22;20454;-65
2022/04/30 04:11:27;;;;;;;10.43;5.93;;;;;;;10.09;50.22;102663.09;6283877;22;20432;-64
2022/04/30 04:19:26;;;;;;;8.88;5.97;;;;;;;10.03;50.09;102665.16;6312736;22;20019;-64
2022/04/30 04:21:57;;;;;;;8.18;5.68;;;;;;;10.00;50.20;102671.53;6308618;22;20022;-64
2022/04/30 04:27:09;;;;;;;9.98;6.00;;;;;;;9.97;50.21;102665.41;6336619;22;20441;-65
2022/04/30 04:29:39;;;;;;;9.88;5.85;;;;;;;9.95;50.23;102676.22;6307909;22;20007;-64
2022/04/30 04:32:15;;;;;;;8.50;5.95;;;;;;;9.94;50.30;102674.47;6336352;22;20022;-63
2022/04/30 04:34:41;;;;;;;9.82;5.47;;;;;;;9.93;50.26;102675.41;6308279;22;20064;-65
2022/04/30 04:37:15;;;;;;;12.00;6.55;;;;;;;9.92;50.20;102675.44;6335529;22;20015;-64
2022/04/30 04:39:43;;;;;;;14.77;5.93;;;;;;;9.90;50.31;102672.84;6308534;22;20022;-65
2022/04/30 04:42:14;;;;;;;10.48;6.15;;;;;;;9.90;50.11;102678.19;6335740;22;20015;-64
2022/04/30 04:44:41;;;;;;;13.90;6.85;;;;;;;9.90;50.34;102677.31;6336293;22;20045;-64
2022/04/30 04:47:08;;;;;;;11.10;6.60;;;;;;;9.86;50.30;102685.50;6337958;22;20015;-64
2022/04/30 04:49:35;;;;;;;11.65;6.47;;;;;;;9.84;50.40;102686.50;6337910;22;20007;-64
2022/04/30 04:52:08;;;;;;;10.70;6.97;;;;;;;9.81;50.52;102687.47;6338380;22;20050;-65
2022/04/30 04:54:35;;;;;;;12.07;6.82;;;;;;;9.80;50.54;102690.22;6336301;22;20033;-65
2022/04/30 04:57:06;;;;;;;9.60;6.32;;;;;;;9.77;50.64;102687.66;6337480;22;20011;-64
2022/04/30 04:59:32;;;;;;;8.40;5.80;;;;;;;9.75;50.60;102689.53;6337833;22;20015;-65
2022/04/30 05:02:03;;;;;;;13.05;6.50;;;;;;;9.74;50.66;102699.38;6284952;22;20101;-64
2022/04/30 05:04:33;;;;;;;12.85;6.78;;;;;;;9.70;50.87;102694.19;6285174;22;20010;-66
2022/04/30 05:07:00;;;;;;;14.80;6.78;;;;;;;9.70;50.78;102688.81;6337547;22;20011;-65
2022/04/30 05:09:27;;;;;;;9.27;6.68;;;;;;;9.73;50.99;102702.13;6309977;22;20014;-66
2022/04/30 05:12:01;;;;;;;10.27;6.60;;;;;;;9.76;50.97;102704.69;6310293;22;20102;-65
2022/04/30 05:14:34;;;;;;;11.52;7.18;;;;;;;9.79;51.13;102704.56;6337879;22;20035;-66
2022/04/30 05:17:03;;;;;;;10.32;7.03;;;;;;;9.82;51.19;102705.34;6309940;22;20022;-65
2022/04/30 05:19:31;;;;;;;9.15;6.85;;;;;;;9.86;51.39;102698.03;6309727;22;20019;-65
2022/04/30 05:22:00;;;;;;;10.30;7.57;;;;;;;9.91;51.46;102701.41;6337508;22;20019;-64
2022/04/30 05:24:26;;;;;;;12.93;7.15;;;;;;;9.96;51.49;102707.47;6310011;22;20105;-64
2022/04/30 05:26:53;;;;;;;11.02;7.78;;;;;;;10.00;51.67;102708.22;6337628;22;20021;-65
2022/04/30 05:29:21;;;;;;;14.52;8.68;;;;;;;10.03;51.82;102710.81;6336559;22;20019;-65
2022/04/30 05:31:52;;;;;;;12.27;8.35;;;;;;;10.04;51.93;102710.75;6337451;22;20014;-64
2022/04/30 05:34:20;;;;;;;14.43;8.15;;;;;;;10.06;52.04;102708.88;6337298;22;20015;-64
2022/04/30 05:36:47;;;;;;;13.50;8.52;;;;;;;10.07;52.33;102707.06;6310050;22;20101;-64
2022/04/30 05:39:13;;;;;;;17.15;8.55;;;;;;;10.10;52.40;102709.63;6309978;22;20007;-64
2022/04/30 05:41:46;;;;;;;15.15;8.75;;;;;;;10.13;52.63;102713.06;6336850;22;20018;-64
2022/04/30 05:44:13;;;;;;;15.55;7.97;;;;;;;10.18;52.66;102708.38;6337514;22;20067;-64
2022/04/30 05:46:39;;;;;;;17.27;8.90;;;;;;;10.22;52.69;102713.66;6309963;22;20503;-66
2022/04/30 05:49:06;;;;;;;18.30;8.85;;;;;;;10.26;52.87;102707.22;6310159;22;20014;-65
2022/04/30 05:51:37;;;;;;;14.88;8.35;;;;;;;10.31;52.94;102713.28;6336455;22;20441;-65
2022/04/30 05:54:04;;;;;;;14.18;8.23;;;;;;;10.34;53.03;102713.16;6309752;22;20194;-64
2022/04/30 05:56:31;;;;;;;15.32;8.27;;;;;;;10.39;53.17;102717.41;6309326;22;20420;-65
2022/04/30 05:58:57;;;;;;;13.18;8.60;;;;;;;10.44;53.30;102709.22;6336475;22;20098;-64
2022/04/30 06:01:25;;;;;;;14.38;9.10;;;;;;;10.49;53.37;102712.59;6336696;22;20053;-65
2022/04/30 06:03:53;;;;;;;18.67;8.82;;;;;;;10.53;53.48;102719.56;6308002;22;20060;-64
2022/04/30 06:06:20;;;;;;;16.92;8.50;;;;;;;10.60;53.56;102718.38;6336899;22;20337;-65
2022/04/30 06:08:47;;;;;;;11.70;8.20;;;;;;;10.68;53.68;102715.38;6309270;22;20125;-66
2022/04/30 06:11:19;;;;;;;13.23;7.90;;;;;;;10.77;53.81;102721.25;6308808;22;20219;-65
2022/04/30 06:13:46;;;;;;;13.38;8.43;;;;;;;10.85;53.61;102718.22;6309290;22;20034;-64
2022/04/30 06:16:12;;;;;;;11.75;7.32;;;;;;;10.96;53.83;102715.09;6337028;22;20015;-64
2022/04/30 06:18:40;;;;;;;9.13;7.40;;;;;;;11.06;53.81;102716.44;6336556;22;20451;-65
2022/04/30 06:21:28;;;;;;;13.50;7.40;;;;;;;11.20;53.98;102716.75;6336818;22;20064;-65
2022/04/30 06:23:54;;;;;;;15.93;7.28;;;;;;;11.34;53.91;102722.38;6336808;22;20015;-65
2022/04/30 06:26:23;;;;;;;11.32;7.65;;;;;;;11.48;53.77;102708.31;6309406;22;20011;-65
2022/04/30 06:28:50;;;;;;;10.48;6.78;;;;;;;11.61;53.86;102716.69;6336143;22;20068;-65
2022/04/30 06:31:25;;;;;;;14.07;7.18;;;;;;;11.76;53.51;102718.69;6309112;22;20015;-66
2022/04/30 06:33:56;;;;;;;8.13;7.22;;;;;;;11.90;53.71;102721.66;6336174;22;20023;-65
2022/04/30 06:36:23;;;;;;;12.38;7.50;;;;;;;12.03;53.70;102722.84;6336577;22;20511;-63
2022/04/30 06:38:49;;;;;;;10.98;7.05;;;;;;;12.18;53.59;102723.06;6335488;22;20010;-66
2022/04/30 06:41:24;;;;;;;9.20;6.85;;;;;;;12.33;53.39;102723.19;6308795;22;20010;-64
2022/04/30 06:43:51;;;;;;;11.32;7.85;;;;;;;12.42;53.22;102719.16;6309398;22;20391;-64
2022/04/30 06:46:18;;;;;;;11.63;6.75;;;;;;;12.51;53.23;102720.53;6335418;22;20038;-64
2022/04/30 06:48:45;;;;;;;9.65;6.90;;;;;;;12.60;53.13;102718.25;6308175;22;20379;-64
2022/04/30 06:51:16;;;;;;;9.40;6.97;;;;;;;12.71;53.00;102717.75;6335605;22;20011;-65
2022/04/30 06:59:14;;;;;;;10.65;6.05;;;;;;;13.19;52.88;102710.81;6336476;22;20337;-65
2022/04/30 07:04:16;;;;;;;11.80;6.53;;;;;;;13.55;52.62;102713.41;6336777;22;20325;-64
2022/04/30 07:06:45;;;;;;;10.25;6.28;;;;;;;13.69;52.26;102702.75;6309277;22;20014;-64
2022/04/30 07:09:13;;;;;;;11.27;6.10;;;;;;;13.82;52.17;102703.81;6335504;22;20026;-64
2022/04/30 07:11:45;;;;;;;6.57;5.32;;;;;;;13.95;51.98;102696.78;6308891;22;20026;-64
2022/04/30 07:14:11;;;;;;;7.95;6.03;;;;;;;14.08;51.69;102704.19;6336186;22;20026;-64
2022/04/30 07:16:38;;;;;;;11.23;5.53;;;;;;;14.17;51.38;102704.56;6336469;22;20434;-64
2022/04/30 07:19:05;;;;;;;8.32;5.22;;;;;;;14.31;51.32;102706.47;6336571;22;20019;-65
2022/04/30 07:21:34;;;;;;;8.68;5.22;;;;;;;14.46;50.79;102708.34;6336625;22;20015;-65
2022/04/30 07:24:01;;;;;;;10.65;5.80;;;;;;;14.59;50.56;102706.66;6335969;22;20022;-64
2022/04/30 07:26:28;;;;;;;8.77;4.97;;;;;;;14.76;50.46;102700.25;6336570;22;20007;-64
2022/04/30 07:28:55;;;;;;;6.28;3.90;;;;;;;14.92;50.24;102709.22;6336454;22;20011;-65
2022/04/30 07:31:24;;;;;;;6.95;4.28;;;;;;;15.04;49.91;102707.63;6336671;22;20021;-65
2022/04/30 07:33:51;;;;;;;7.38;4.47;;;;;;;15.15;49.57;102705.13;6336346;22;20441;-64
2022/04/30 07:36:19;;;;;;;8.48;4.70;;;;;;;15.34;49.41;102699.47;6335115;22;20022;-64
2022/04/30 07:38:46;;;;;;;5.88;4.10;;;;;;;15.52;49.27;102695.63;6308358;22;20098;-63
2022/04/30 07:41:14;;;;;;;5.70;3.90;;;;;;;15.69;49.06;102694.63;6336087;22;20313;-63
2022/04/30 07:43:41;;;;;;;7.03;4.10;;;;;;;15.83;48.52;102691.03;6308710;22;20014;-63
2022/04/30 07:46:07;;;;;;;7.90;4.13;;;;;;;15.95;48.60;102692.09;6308685;22;20094;-64
2022/04/30 07:48:38;;;;;;;6.20;3.70;;;;;;;16.10;48.14;102681.09;6335797;22;20064;-62
2022/04/30 07:51:17;;;;;;;6.22;4.07;;;;;;;16.21;47.74;102684.00;6335970;22;20101;-64
2022/04/30 07:53:44;;;;;;;6.30;3.90;;;;;;;16.31;47.47;102676.13;6336357;22;20018;-64
2022/04/30 07:56:11;;;;;;;7.15;3.90;;;;;;;16.40;47.05;102680.97;6336414;22;20019;-63
2022/04/30 07:58:38;;;;;;;6.80;3.97;;;;;;;16.48;46.83;102686.75;6335942;22;20102;-64
2022/04/30 08:01:05;;;;;;;4.93;3.92;;;;;;;16.60;46.33;102687.75;6336255;22;20014;-63
2022/04/30 08:03:33;;;;;;;7.93;4.20;;;;;;;16.73;46.35;102682.41;6336178;22;20015;-63
2022/04/30 08:06:00;;;;;;;6.80;3.90;;;;;;;16.81;46.31;102680.91;6336018;22;20022;-63
2022/04/30 08:08:27;;;;;;;6.43;3.90;;;;;;;16.94;45.71;102685.50;6336007;22;20011;-63
2022/04/30 08:10:55;;;;;;;9.10;4.13;;;;;;;17.03;45.44;102685.72;6336344;22;20011;-63
2022/04/30 08:13:22;;;;;;;8.50;3.67;;;;;;;17.13;45.53;102678.72;6336273;22;20026;-63
2022/04/30 08:15:49;;;;;;;6.97;3.88;;;;;;;17.31;44.97;102681.13;6308531;22;20019;-64
2022/04/30 08:18:15;;;;;;;6.43;3.88;;;;;;;17.41;44.83;102677.66;6335578;22;20445;-64
2022/04/30 08:20:46;;;;;;;5.15;3.58;;;;;;;17.50;44.17;102667.97;6336332;22;20369;-66
2022/04/30 08:23:13;;;;;;;6.53;3.63;;;;;;;17.52;44.39;102674.16;6336994;22;20049;-66
2022/04/30 08:25:39;;;;;;;5.50;2.78;;;;;;;17.52;43.67;102676.00;6337978;22;20015;-63
2022/04/30 08:28:12;;;;;;;6.90;3.13;;;;;;;17.43;43.39;102674.81;6338126;22;20102;-64
2022/04/30 08:30:42;;;;;;;3.60;3.28;;;;;;;17.43;43.36;102678.41;6337411;22;20010;-64
2022/04/30 08:33:08;;;;;;;5.97;3.45;;;;;;;17.45;43.18;102665.59;6337449;22;20010;-64
2022/04/30 08:35:35;;;;;;;6.47;4.05;;;;;;;17.49;43.20;102658.09;6337637;22;20340;-64
2022/04/30 08:38:09;;;;;;;9.13;5.40;;;;;;;17.55;43.37;102665.78;6337697;22;20433;-64
2022/04/30 08:40:44;;;;;;;7.10;5.22;;;;;;;17.57;43.49;102660.25;6338049;22;20030;-64
2022/04/30 08:43:13;;;;;;;7.90;4.65;;;;;;;17.53;43.30;102662.31;6337361;22;20025;-64
2022/04/30 08:45:42;;;;;;;9.20;5.10;;;;;;;17.41;42.92;102661.34;6337740;22;20336;-63
2022/04/30 08:48:10;;;;;;;8.00;4.95;;;;;;;17.32;43.32;102664.72;6337374;22;20088;-64
2022/04/30 08:50:39;;;;;;;11.65;5.72;;;;;;;17.27;43.47;102666.88;6337709;22;20437;-64
2022/04/30 08:53:06;;;;;;;12.57;5.70;;;;;;;17.21;43.16;102666.44;6337180;22;20445;-64
2022/04/30 08:55:33;;;;;;;8.40;5.03;;;;;;;17.14;43.25;102663.31;6337644;22;20049;-63
2022/04/30 08:58:00;;;;;;;8.10;4.63;;;;;;;17.08;43.03;102664.56;6337576;22;20037;-63
2022/04/30 09:00:38;;;;;;;6.97;4.90;;;;;;;17.06;43.25;102663.81;6337879;22;20136;-63
2022/04/30 09:03:05;;;;;;;6.95;4.93;;;;;;;17.13;43.18;102659.72;6336558;22;20048;-63
2022/04/30 09:05:37;;;;;;;7.15;5.00;;;;;;;17.28;43.18;102662.31;6337587;22;20072;-63
2022/04/30 09:08:05;;;;;;;6.43;3.60;;;;;;;17.47;43.15;102660.03;6310345;22;20093;-63
2022/04/30 09:10:37;;;;;;;6.78;4.00;;;;;;;17.64;42.78;102650.69;6337490;22;20461;-63
2022/04/30 09:13:04;;;;;;;7.32;4.28;;;;;;;17.81;42.83;102649.47;6337471;22;20038;-63
2022/04/30 09:15:32;;;;;;;6.75;4.57;;;;;;;17.92;42.54;102653.19;6309900;22;20019;-63
2022/04/30 09:17:59;;;;;;;5.82;4.13;;;;;;;18.08;42.74;102642.91;6337393;22;20026;-63
2022/04/30 09:20:31;;;;;;;6.32;3.88;;;;;;;18.18;42.31;102637.66;6337535;22;20398;-63
2022/04/30 09:22:57;;;;;;;10.43;4.35;;;;;;;18.22;41.63;102636.44;6337147;22;20029;-63
2022/04/30 09:25:24;;;;;;;4.43;3.03;;;;;;;18.31;41.61;102643.03;6337140;22;20383;-63
2022/04/30 09:28:01;;;;;;;5.50;4.47;;;;;;;18.34;41.44;102640.09;6337461;22;20072;-65
2022/04/30 09:31:13;;;;;;;7.80;4.82;;;;;;;18.19;41.35;102643.97;6337045;22;20007;-63
2022/04/30 09:33:57;;;;;;;7.22;4.63;;;;;;;18.04;41.33;102641.41;6336902;22;20380;-63
2022/04/30 09:39:14;;;;;;;6.72;5.07;;;;;;;17.73;41.54;102640.03;6337586;22;20014;-64
2022/04/30 09:41:44;;;;;;;8.48;5.35;;;;;;;17.56;41.80;102642.22;6308853;22;20018;-63
2022/04/30 09:44:14;;;;;;;8.15;5.40;;;;;;;17.43;42.12;102642.22;6336985;22;20484;-63
2022/04/30 09:46:41;;;;;;;8.18;5.55;;;;;;;17.29;42.05;102645.94;6337593;22;20345;-64
2022/04/30 09:54:44;;;;;;;8.85;5.32;;;;;;;17.12;42.24;102640.81;6336353;22;20025;-63
2022/04/30 09:57:14;;;;;;;9.48;5.25;;;;;;;17.08;42.65;102640.13;6336910;22;20064;-64
2022/04/30 09:59:43;;;;;;;9.32;5.22;;;;;;;17.06;42.59;102636.66;6337196;22;20015;-64
2022/04/30 10:02:15;;;;;;;9.82;5.75;;;;;;;17.04;42.50;102635.91;6309474;22;20333;-63
2022/04/30 10:04:44;;;;;;;13.90;5.55;;;;;;;17.02;42.81;102631.56;6336147;22;20040;-63
2022/04/30 10:07:15;;;;;;;7.35;5.28;;;;;;;17.01;42.41;102632.53;6337340;22;20015;-64
2022/04/30 10:09:47;;;;;;;7.22;5.18;;;;;;;16.99;42.27;102632.63;6336689;22;20017;-64
2022/04/30 10:12:32;;;;;;;10.82;5.22;;;;;;;17.01;42.34;102622.53;6337105;22;20018;-64
2022/04/30 10:15:07;;;;;;;6.57;4.63;;;;;;;17.03;42.58;102615.16;6309915;22;20018;-64
2022/04/30 10:17:36;;;;;;;6.40;4.25;;;;;;;17.10;42.55;102621.06;6337151;22;20011;-64
2022/04/30 10:20:15;;;;;;;6.85;4.22;;;;;;;17.18;42.51;102610.53;6335046;22;20034;-64
2022/04/30 10:23:00;;;;;;;6.93;4.80;;;;;;;17.23;42.47;102619.22;6337206;22;20025;-63
2022/04/30 10:25:42;;;;;;;8.25;5.95;;;;;;;17.23;42.07;102613.78;6336640;22;20021;-64
2022/04/30 10:28:18;;;;;;;7.72;4.38;;;;;;;17.25;42.28;102611.81;6336735;22;20014;-64
2022/04/30 10:31:05;;;;;;;9.73;5.40;;;;;;;17.29;42.14;102617.91;6336265;22;20014;-64
2022/04/30 10:33:33;;;;;;;6.53;4.78;;;;;;;17.26;42.28;102609.97;6336992;22;20041;-64
2022/04/30 10:36:11;;;;;;;8.18;5.20;;;;;;;17.18;41.90;102606.94;6337043;22;20014;-64
2022/04/30 10:38:38;;;;;;;10.55;5.38;;;;;;;17.15;42.12;102602.59;6336984;22;20007;-63
2022/04/30 10:41:11;;;;;;;9.73;6.25;;;;;;;17.09;41.95;102600.28;6336236;22;20022;-64
2022/04/30 10:43:39;;;;;;;6.95;5.10;;;;;;;17.07;42.05;102596.81;6336133;22;20098;-63
2022/04/30 10:46:26;;;;;;;10.10;6.03;;;;;;;17.09;42.06;102594.84;6336567;22;20015;-63
2022/04/30 10:48:53;;;;;;;7.65;5.80;;;;;;;17.11;41.94;102596.50;6308605;22;20018;-63
2022/04/30 10:51:41;;;;;;;10.23;6.55;;;;;;;17.19;42.24;102590.53;6308379;22;20021;-62
2022/04/30 10:54:15;;;;;;;10.45;5.70;;;;;;;17.27;42.19;102590.84;6308692;22;20015;-62
2022/04/30 10:56:58;;;;;;;8.90;5.72;;;;;;;17.36;42.00;102581.19;6336677;22;20014;-63
2022/04/30 10:59:26;;;;;;;6.93;5.20;;;;;;;17.50;41.64;102589.19;6336532;22;20098;-62
2022/04/30 11:01:57;;;;;;;7.97;5.40;;;;;;;17.68;41.58;102585.16;6335700;22;20039;-63
2022/04/30 11:04:24;;;;;;;7.22;5.38;;;;;;;17.90;41.60;102578.16;6335906;22;20015;-63
2022/04/30 11:06:53;;;;;;;7.03;5.45;;;;;;;18.13;41.60;102574.59;6336519;22;20014;-63
2022/04/30 11:09:21;;;;;;;8.73;5.07;;;;;;;18.31;41.40;102573.19;6336295;22;20015;-63
2022/04/30 11:11:51;;;;;;;8.20;5.30;;;;;;;18.38;40.98;102573.59;6336369;22;20207;-64
2022/04/30 11:14:19;;;;;;;8.77;5.38;;;;;;;18.40;40.83;102572.47;6336565;22;20214;-64
2022/04/30 11:16:49;;;;;;;7.38;5.20;;;;;;;18.51;40.67;102560.78;6335691;22;20014;-64
2022/04/30 11:19:19;;;;;;;6.95;4.53;;;;;;;18.64;40.37;102555.31;6335782;22;20022;-64
2022/04/30 11:21:53;;;;;;;6.70;4.40;;;;;;;18.79;39.73;102556.81;6334819;22;20441;-65
2022/04/30 11:24:28;;;;;;;8.13;4.75;;;;;;;18.97;39.81;102544.47;6335528;22;20514;-64
2022/04/30 11:27:03;;;;;;;6.93;4.53;;;;;;;19.14;39.77;102545.84;6335427;22;20021;-64
2022/04/30 11:29:30;;;;;;;4.78;4.05;;;;;;;19.36;39.10;102539.56;6309363;22;20297;-64
2022/04/30 11:32:01;;;;;;;8.82;4.72;;;;;;;19.60;38.92;102543.03;6335513;22;20014;-63
2022/04/30 11:34:27;;;;;;;8.70;5.07;;;;;;;19.80;38.81;102538.66;6335592;22;20025;-64
2022/04/30 11:36:58;;;;;;;6.80;4.35;;;;;;;19.98;38.33;102544.41;6335696;22;20354;-63
2022/04/30 11:39:26;;;;;;;9.13;4.95;;;;;;;20.05;37.73;102532.00;6307818;22;20014;-64
2022/04/30 11:41:59;;;;;;;5.97;4.20;;;;;;;20.12;37.78;102524.19;6335704;22;20015;-64
2022/04/30 11:44:27;;;;;;;5.75;4.75;;;;;;;20.09;37.65;102530.78;6335982;22;20019;-63
2022/04/30 11:46:54;;;;;;;8.30;5.03;;;;;;;20.02;37.30;102526.78;6336118;22;20014;-63
2022/04/30 11:49:25;;;;;;;7.40;4.68;;;;;;;19.96;37.22;102521.84;6335859;22;20026;-64
2022/04/30 11:52:11;;;;;;;8.65;5.30;;;;;;;19.89;37.01;102526.97;6336446;22;20013;-64
2022/04/30 11:54:39;;;;;;;6.57;4.65;;;;;;;19.79;37.09;102527.88;6335813;22;20018;-65
2022/04/30 11:57:07;;;;;;;7.80;4.40;;;;;;;19.64;37.18;102522.69;6335553;22;20409;-65
2022/04/30 11:59:39;;;;;;;5.88;4.05;;;;;;;19.53;37.00;102524.56;6307833;22;20018;-64
2022/04/30 12:02:12;;;;;;;4.65;3.70;;;;;;;19.44;36.70;102514.41;6336557;22;20158;-64
2022/04/30 12:04:41;;;;;;;5.75;4.00;;;;;;;19.38;36.89;102514.91;6308636;22;20105;-64
2022/04/30 12:07:10;;;;;;;8.43;3.75;;;;;;;19.34;36.93;102517.03;6282556;22;20340;-64
2022/04/30 12:09:38;;;;;;;6.07;4.00;;;;;;;19.31;37.08;102518.09;6335614;22;20033;-64
2022/04/30 12:12:19;;;;;;;6.88;4.20;;;;;;;19.33;37.05;102509.84;6336389;22;20014;-64
2022/04/30 12:14:50;;;;;;;5.95;4.07;;;;;;;19.34;37.16;102507.00;6336518;22;20022;-63